Time;durP1;ratioP1;P1;durP2;ratioP2;P2;SDS_P1;SDS_P2;PMS_P1;PMS_P2;Temp;Humidity;BMP_temperature;BMP_pressure;BME280_temperature;BME280_humidity;BME280_pressure;Samples;Min_cycle;Max_cycle;Signal;HPM_P1;HPM_P2
2021/07/10 00:00:24;;;;;;;;;11.50;11.25;;;;;19.48;66.04;101621.41;5122170;27;45326;-95
2021/07/10 00:02:49;;;;;;;;;12.00;9.25;;;;;19.45;65.95;101616.22;5121055;27;45598;-96
2021/07/10 00:05:18;;;;;;;;;9.00;9.00;;;;;19.53;65.78;101637.31;5121456;27;47738;-96
2021/07/10 00:07:44;;;;;;;;;11.75;10.75;;;;;19.24;66.10;101581.72;5140360;27;45447;-96
2021/07/10 00:10:14;;;;;;;;;13.25;11.00;;;;;19.57;66.04;101629.72;5114208;27;45465;-95
2021/07/10 00:12:43;;;;;;;;;9.50;8.50;;;;;19.22;66.24;101581.03;5103663;27;46069;-96
2021/07/10 00:15:12;;;;;;;;;11.00;11.00;;;;;19.02;65.79;101527.47;5103154;27;47060;-96
2021/07/10 00:17:38;;;;;;;;;12.25;11.50;;;;;19.35;66.26;101585.38;5120664;27;45670;-96
2021/07/10 00:20:05;;;;;;;;;9.50;9.50;;;;;19.17;66.20;101563.38;5120737;27;45481;-96
2021/07/10 00:22:31;;;;;;;;;10.75;10.75;;;;;19.20;65.70;101573.97;5102881;27;45255;-96
2021/07/10 00:24:56;;;;;;;;;9.50;9.50;;;;;19.74;66.28;101660.94;5103173;27;46647;-96
2021/07/10 00:27:22;;;;;;;;;8.75;8.75;;;;;19.18;66.17;101565.94;5102845;27;45299;-96
2021/07/10 00:29:48;;;;;;;;;9.00;9.00;;;;;19.60;66.36;101629.47;5120854;27;45324;-96
2021/07/10 00:32:21;;;;;;;;;13.00;13.00;;;;;19.22;66.24;101569.25;5103998;27;45232;-95
2021/07/10 00:34:47;;;;;;;;;10.25;10.00;;;;;19.56;66.54;101612.53;5121666;27;47778;-96
2021/07/10 00:37:12;;;;;;;;;10.75;8.50;;;;;19.42;66.21;101582.97;5141493;27;45500;-96
2021/07/10 00:39:38;;;;;;;;;8.25;8.25;;;;;19.58;66.15;101606.94;5136744;27;45388;-95
2021/07/10 00:42:04;;;;;;;;;11.00;11.00;;;;;19.56;65.81;101598.94;5103770;27;45173;-96
2021/07/10 00:44:29;;;;;;;;;8.00;7.25;;;;;19.58;65.82;101588.75;5103562;27;46819;-95
2021/07/10 00:46:58;;;;;;;;;8.50;7.50;;;;;19.10;65.84;101518.63;5102431;27;45303;-95
2021/07/10 00:49:23;;;;;;;;;9.75;8.25;;;;;19.61;65.55;101595.78;5102756;27;45417;-96
2021/07/10 00:51:49;;;;;;;;;11.00;9.00;;;;;19.16;66.22;101524.41;5118869;27;45401;-96
2021/07/10 00:54:15;;;;;;;;;9.00;9.00;;;;;19.23;65.68;101535.59;5120091;27;46765;-96
2021/07/10 00:56:44;;;;;;;;;11.50;9.00;;;;;19.18;66.14;101526.97;5118971;27;45242;-96
2021/07/10 00:59:09;;;;;;;;;12.75;9.00;;;;;19.31;65.97;101554.84;5118487;27;45279;-96
2021/07/10 01:01:35;;;;;;;;;10.75;9.25;;;;;19.17;66.12;101522.56;5118997;27;45486;-96
2021/07/10 01:04:01;;;;;;;;;9.00;9.00;;;;;19.47;65.65;101570.66;5134790;27;46955;-96
2021/07/10 01:06:27;;;;;;;;;9.75;7.75;;;;;19.11;65.79;101504.03;5139353;27;45345;-96
2021/07/10 01:08:53;;;;;;;;;7.50;7.50;;;;;19.16;65.98;101512.66;5139337;27;45426;-96
2021/07/10 01:11:19;;;;;;;;;9.00;8.25;;;;;19.14;65.83;101520.09;5139490;27;45481;-95
2021/07/10 01:13:48;;;;;;;;;9.25;7.75;;;;;19.08;66.10;101511.47;5139174;27;47259;-95
2021/07/10 01:16:13;;;;;;;;;10.00;9.00;;;;;19.47;65.70;101575.22;5139320;27;45734;-96
2021/07/10 01:18:39;;;;;;;;;10.25;9.00;;;;;19.33;65.99;101543.81;5122331;27;45350;-96
2021/07/10 01:21:05;;;;;;;;;11.25;9.50;;;;;19.40;65.97;101564.03;5139724;27;44813;-95
2021/07/10 01:23:30;;;;;;;;;10.25;7.75;;;;;19.05;66.39;101495.41;5121723;27;46958;-96
2021/07/10 01:25:56;;;;;;;;;9.25;7.25;;;;;19.08;66.05;101505.19;5121565;27;45441;-95
2021/07/10 01:28:25;;;;;;;;;10.00;10.00;;;;;19.44;66.85;101549.13;5139021;27;45400;-96
2021/07/10 01:30:51;;;;;;;;;7.75;7.00;;;;;19.02;64.84;101481.22;5139516;27;45508;-96
2021/07/10 01:33:17;;;;;;;;;10.50;8.50;;;;;19.18;64.63;101508.78;5137211;27;47123;-96
2021/07/10 01:35:43;;;;;;;;;10.75;9.00;;;;;19.02;64.46;101470.34;5142029;27;45425;-95
2021/07/10 01:38:20;;;;;;;;;8.75;6.50;;;;;18.99;65.49;101470.59;5159351;27;44753;-93
2021/07/10 01:40:46;;;;;;;;;7.00;6.00;;;;;19.62;64.52;101567.53;5127488;27;44890;-92
2021/07/10 01:43:12;;;;;;;;;7.00;7.00;;;;;19.00;64.73;101472.31;5112150;27;46612;-96
2021/07/10 01:45:39;;;;;;;;;6.75;6.75;;;;;19.42;64.99;101523.91;5102015;27;45334;-96
2021/07/10 01:48:06;;;;;;;;;9.00;9.00;;;;;19.07;64.61;101462.63;5101687;27;45429;-95
2021/07/10 01:50:32;;;;;;;;;9.25;9.25;;;;;19.04;64.56;101457.44;5118606;27;45255;-95
2021/07/10 01:52:58;;;;;;;;;11.00;9.00;;;;;19.45;65.24;101507.28;5100691;27;47721;-94
2021/07/10 01:55:24;;;;;;;;;8.00;8.00;;;;;19.41;63.60;101513.16;5100492;27;45242;-96
2021/07/10 01:57:55;;;;;;;;;10.50;10.50;;;;;19.00;63.68;101431.50;5118979;27;45314;-94
2021/07/10 02:00:27;;;;;;;;;11.00;10.00;;;;;18.96;64.61;101428.22;5100579;27;45544;-95
2021/07/10 02:02:53;;;;;;;;;7.50;6.75;;;;;18.93;64.11;101421.16;5100417;27;47027;-94
2021/07/10 02:05:24;;;;;;;;;9.00;9.00;;;;;19.49;64.30;101525.09;5100243;27;45502;-95
2021/07/10 02:07:51;;;;;;;;;8.00;8.00;;;;;18.84;64.40;101411.09;5114082;27;45296;-95
2021/07/10 02:10:19;;;;;;;;;9.00;9.00;;;;;19.35;64.88;101485.47;5096847;27;45450;-95
2021/07/10 02:12:54;;;;;;;;;8.50;8.00;;;;;19.36;64.80;101481.75;5096486;27;46726;-95
2021/07/10 02:15:19;;;;;;;;;7.25;7.00;;;;;19.33;64.44;101475.72;5096436;27;45523;-94
2021/07/10 02:17:45;;;;;;;;;7.00;7.00;;;;;19.01;64.09;101417.78;5116737;27;45430;-96
2021/07/10 02:20:16;;;;;;;;;8.75;7.75;;;;;19.01;64.19;101417.78;5120722;27;45531;-96
2021/07/10 02:22:42;;;;;;;;;12.00;9.00;;;;;18.92;63.96;101408.56;5137836;27;47943;-95
2021/07/10 02:25:10;;;;;;;;;9.75;8.25;;;;;19.30;64.23;101473.28;5120547;27;45702;-96
2021/07/10 02:27:37;;;;;;;;;9.00;9.00;;;;;19.14;64.66;101447.44;5120749;27;45255;-95
2021/07/10 02:30:07;;;;;;;;;10.75;8.00;;;;;18.90;64.73;101407.81;5137615;27;45584;-96
2021/07/10 02:32:33;;;;;;;;;9.25;8.00;;;;;18.93;64.95;101413.00;5102751;27;46948;-96
2021/07/10 02:34:58;;;;;;;;;9.50;7.50;;;;;19.30;64.27;101473.28;5099479;27;45512;-96
2021/07/10 02:37:24;;;;;;;;;9.25;7.75;;;;;19.03;64.12;101431.22;5117020;27;45338;-95
2021/07/10 02:39:50;;;;;;;;;10.50;9.50;;;;;19.15;64.08;101448.31;5109835;27;45519;-96
2021/07/10 02:42:15;;;;;;;;;8.00;8.00;;;;;18.93;63.82;101412.13;5098752;27;47066;-95
2021/07/10 02:44:41;;;;;;;;;11.25;8.75;;;;;19.28;64.27;101470.72;5120285;27;45301;-96
2021/07/10 02:47:06;;;;;;;;;7.75;7.75;;;;;19.19;64.25;101463.34;5105387;27;45382;-95
2021/07/10 02:49:32;;;;;;;;;6.25;6.25;;;;;19.05;64.37;101443.69;5099312;27;45244;-96
2021/07/10 02:51:58;;;;;;;;;9.00;8.00;;;;;19.00;64.32;101440.53;5099086;27;46739;-96
2021/07/10 02:54:23;;;;;;;;;7.25;7.25;;;;;18.80;64.80;101397.91;5099069;27;45263;-95
2021/07/10 02:56:49;;;;;;;;;7.00;4.00;;;;;18.82;64.38;101396.75;5099682;27;45181;-96
2021/07/10 02:59:17;;;;;;;;;8.75;7.25;;;;;18.90;64.97;101409.66;5099430;27;45402;-94
2021/07/10 03:01:43;;;;;;;;;9.00;9.00;;;;;19.21;64.73;101451.34;5098934;27;48063;-96
2021/07/10 03:04:08;;;;;;;;;8.00;7.00;;;;;19.00;64.26;101415.19;5116411;27;46180;-96
2021/07/10 03:06:34;;;;;;;;;6.75;6.75;;;;;19.22;64.53;101452.19;5083701;27;45508;-95
2021/07/10 03:08:59;;;;;;;;;7.75;7.00;;;;;19.36;64.66;101476.31;5095812;27;45480;-96
2021/07/10 03:11:25;;;;;;;;;7.25;7.25;;;;;19.40;63.96;101476.88;5078507;28;47762;-95
2021/07/10 03:13:54;;;;;;;;;8.50;8.50;;;;;19.11;64.50;101439.56;5078570;28;45328;-95
2021/07/10 03:16:20;;;;;;;;;12.75;9.25;;;;;18.97;64.45;101407.28;5078376;28;45469;-96
2021/07/10 03:18:45;;;;;;;;;8.50;8.50;;;;;19.10;64.55;101439.69;5078438;28;45525;-95
2021/07/10 03:21:11;;;;;;;;;13.25;9.25;;;;;18.96;64.61;101420.03;5095531;27;46689;-95
2021/07/10 03:23:37;;;;;;;;;8.50;7.75;;;;;18.62;64.90;101368.63;5078309;28;45344;-95
2021/07/10 03:26:03;;;;;;;;;8.75;6.75;;;;;18.86;64.57;101416.41;5078301;27;45439;-96
2021/07/10 03:28:32;;;;;;;;;9.50;7.75;;;;;18.63;64.77;101389.38;5095396;27;45494;-95
2021/07/10 03:30:57;;;;;;;;;9.00;9.00;;;;;18.57;64.61;101370.91;5094984;27;46831;-96
2021/07/10 03:33:23;;;;;;;;;8.75;7.00;;;;;18.91;64.66;101427.72;5078264;28;45519;-96
2021/07/10 03:35:49;;;;;;;;;10.50;9.25;;;;;18.58;64.68;101362.59;5078390;28;45246;-96
2021/07/10 03:38:15;;;;;;;;;7.50;7.50;;;;;18.50;65.08;101351.56;5077975;27;45654;-95
2021/07/10 03:40:45;;;;;;;;;11.25;9.00;;;;;18.56;64.85;101364.59;5077953;28;46788;-96
2021/07/10 03:43:11;;;;;;;;;7.50;6.50;;;;;18.74;64.68;101393.88;5078572;28;45616;-95
2021/07/10 03:45:37;;;;;;;;;10.00;9.00;;;;;18.41;65.33;101355.97;5093747;27;45464;-96
2021/07/10 03:48:03;;;;;;;;;9.75;8.25;;;;;18.48;65.23;101365.28;5098564;27;45570;-94
2021/07/10 03:50:29;;;;;;;;;9.75;8.75;;;;;18.82;64.92;101421.22;5115701;27;46783;-95
2021/07/10 03:52:54;;;;;;;;;6.75;6.75;;;;;18.47;65.22;101373.59;5098332;27;45219;-96
2021/07/10 03:55:20;;;;;;;;;8.00;8.00;;;;;18.43;65.17;101370.28;5098214;27;45367;-96
2021/07/10 03:57:46;;;;;;;;;8.00;8.00;;;;;18.72;65.34;101425.78;5115793;27;45368;-94
2021/07/10 04:00:15;;;;;;;;;6.25;6.25;;;;;19.03;65.16;101463.88;5119950;27;46808;-94
2021/07/10 04:02:41;;;;;;;;;10.00;8.00;;;;;18.78;65.37;101417.09;5105092;27;45447;-95
2021/07/10 04:05:07;;;;;;;;;9.50;9.50;;;;;18.53;65.29;101381.19;5107880;27;44830;-96
2021/07/10 04:07:37;;;;;;;;;9.25;7.25;;;;;18.53;65.54;101386.63;5109734;27;44908;-95
2021/07/10 04:10:06;;;;;;;;;8.25;7.50;;;;;18.35;65.67;101353.78;5148447;27;47124;-94
2021/07/10 04:12:31;;;;;;;;;9.75;9.75;;;;;18.75;65.39;101420.94;5135251;27;45224;-94
2021/07/10 04:15:00;;;;;;;;;9.25;7.25;;;;;18.40;65.29;101369.66;5122780;27;45275;-96
2021/07/10 04:17:32;;;;;;;;;10.00;7.25;;;;;18.37;65.25;101364.53;5121075;27;45300;-95
2021/07/10 04:19:59;;;;;;;;;8.50;8.00;;;;;18.62;65.47;101391.25;5119944;27;46912;-95
2021/07/10 04:22:25;;;;;;;;;10.50;7.75;;;;;18.34;65.68;101346.63;5119357;27;45173;-94
2021/07/10 04:24:54;;;;;;;;;8.75;8.50;;;;;18.68;65.73;101408.88;5102768;27;45430;-95
2021/07/10 04:27:19;;;;;;;;;13.25;11.00;;;;;18.31;65.42;101347.75;5119710;27;45307;-95
2021/07/10 04:29:48;;;;;;;;;9.00;7.50;;;;;18.71;65.37;101410.47;5134456;27;47681;-96
2021/07/10 04:32:16;;;;;;;;;10.75;9.25;;;;;18.47;65.53;101385.31;5121620;27;45011;-96
2021/07/10 04:34:45;;;;;;;;;7.75;6.25;;;;;18.48;65.58;101383.47;5122861;27;45366;-95
2021/07/10 04:37:11;;;;;;;;;9.00;9.00;;;;;18.51;65.93;101393.19;5121881;27;45227;-96
2021/07/10 04:39:36;;;;;;;;;9.50;8.00;;;;;18.20;66.02;101344.25;5120469;27;46993;-95
2021/07/10 04:42:02;;;;;;;;;11.00;9.50;;;;;18.67;66.23;101422.63;5104996;27;45402;-95
2021/07/10 04:44:28;;;;;;;;;8.00;7.50;;;;;18.29;65.94;101360.63;5122158;27;45299;-96
2021/07/10 04:46:53;;;;;;;;;9.50;7.50;;;;;18.85;66.39;101453.63;5118607;27;45473;-95
2021/07/10 04:49:19;;;;;;;;;10.00;6.25;;;;;18.29;65.82;101371.50;5118312;27;47999;-94
2021/07/10 04:51:47;;;;;;;;;9.25;8.75;;;;;18.23;66.11;101372.06;5100789;27;45267;-93
2021/07/10 04:54:13;;;;;;;;;7.00;7.00;;;;;18.19;66.58;101367.88;5118184;27;45318;-95
2021/07/10 04:56:38;;;;;;;;;8.00;8.00;;;;;18.28;66.00;101367.06;5117760;27;45420;-96
2021/07/10 04:59:04;;;;;;;;;11.00;6.50;;;;;18.53;66.50;101408.38;5117520;27;46927;-95
2021/07/10 05:01:30;;;;;;;;;9.00;8.00;;;;;18.67;67.06;101428.06;5118208;27;45416;-96
2021/07/10 05:03:59;;;;;;;;;9.25;9.25;;;;;18.51;66.87;101390.47;5117870;27;45202;-95
2021/07/10 05:06:25;;;;;;;;;7.75;7.75;;;;;18.71;66.18;101415.91;5103473;27;45459;-95
2021/07/10 05:08:51;;;;;;;;;8.00;6.00;;;;;18.36;65.80;101360.09;5097004;27;47933;-95
2021/07/10 05:11:17;;;;;;;;;7.00;5.75;;;;;18.31;65.72;101358.63;5095859;27;45758;-96
2021/07/10 05:13:43;;;;;;;;;7.50;7.50;;;;;18.90;66.10;101461.38;5080486;27;45322;-96
2021/07/10 05:16:09;;;;;;;;;10.00;8.75;;;;;18.50;66.51;101408.66;5080749;27;45644;-95
2021/07/10 05:18:37;;;;;;;;;12.50;10.00;;;;;18.34;66.54;101383.81;5080166;27;47679;-95
2021/07/10 05:21:02;;;;;;;;;10.00;10.00;;;;;18.53;66.42;101400.22;5080296;27;45342;-94
2021/07/10 05:23:28;;;;;;;;;8.75;6.00;;;;;18.31;66.41;101369.50;5080613;27;45329;-96
2021/07/10 05:25:54;;;;;;;;;11.25;9.00;;;;;18.35;66.95;101369.25;5082158;27;45186;-96
2021/07/10 05:28:19;;;;;;;;;11.50;8.75;;;;;18.46;66.61;101385.47;5083661;27;46875;-95
2021/07/10 05:30:47;;;;;;;;;9.50;8.25;;;;;18.36;66.70;101370.97;5101624;27;45497;-93
2021/07/10 05:33:17;;;;;;;;;10.75;8.00;;;;;18.71;66.66;101422.22;5102663;27;45248;-93
2021/07/10 05:35:46;;;;;;;;;6.25;6.25;;;;;18.74;66.83;101421.91;5090424;27;44860;-96
2021/07/10 05:38:16;;;;;;;;;7.75;7.75;;;;;18.63;66.47;101403.88;5082038;27;46807;-95
2021/07/10 05:40:42;;;;;;;;;10.50;7.75;;;;;18.73;66.29;101420.22;5096889;27;45653;-95
2021/07/10 05:43:08;;;;;;;;;9.00;8.75;;;;;18.71;66.70;101421.34;5140210;27;45238;-95
2021/07/10 05:45:34;;;;;;;;;9.00;8.00;;;;;18.36;66.45;101355.50;5138819;27;45177;-94
2021/07/10 05:48:02;;;;;;;;;11.00;8.25;;;;;18.35;66.23;101361.09;5121268;27;47798;-95
2021/07/10 05:50:28;;;;;;;;;8.25;7.50;;;;;18.24;66.47;101332.13;5138619;27;45575;-94
2021/07/10 05:52:53;;;;;;;;;7.25;6.25;;;;;18.31;66.77;101350.47;5124558;27;45515;-95
2021/07/10 05:55:19;;;;;;;;;8.50;8.50;;;;;18.72;67.17;101410.34;5141894;27;45459;-95
2021/07/10 05:57:45;;;;;;;;;9.25;9.00;;;;;18.72;67.45;101406.75;5121215;27;46566;-95
2021/07/10 06:00:12;;;;;;;;;8.00;7.00;;;;;18.57;67.16;101368.19;5121046;27;45494;-96
2021/07/10 06:02:38;;;;;;;;;11.50;10.00;;;;;18.51;66.91;101366.88;5121236;27;45283;-94
2021/07/10 06:05:06;;;;;;;;;10.00;9.00;;;;;18.92;67.35;101430.31;5118179;27;45243;-95
2021/07/10 06:07:32;;;;;;;;;11.00;9.50;;;;;18.77;67.19;101394.44;5082861;27;48322;-95
2021/07/10 06:09:57;;;;;;;;;8.00;8.00;;;;;18.92;67.06;101435.75;5083880;27;45894;-96
2021/07/10 06:12:23;;;;;;;;;8.00;6.50;;;;;18.41;66.83;101338.78;5104363;27;45509;-94
2021/07/10 06:14:49;;;;;;;;;11.25;7.75;;;;;18.78;66.80;101396.19;5124168;27;45606;-94
2021/07/10 06:17:14;;;;;;;;;7.00;7.00;;;;;18.98;67.22;101419.88;5124955;27;46968;-94
2021/07/10 06:19:40;;;;;;;;;12.25;9.00;;;;;18.72;66.90;101380.44;5126307;27;45222;-94
2021/07/10 06:22:05;;;;;;;;;11.00;8.50;;;;;18.45;67.05;101342.94;5126182;27;45307;-95
2021/07/10 06:24:35;;;;;;;;;10.00;7.25;;;;;18.41;67.42;101317.91;5125202;27;45271;-94
2021/07/10 06:27:01;;;;;;;;;12.00;9.75;;;;;18.71;67.40;101364.22;5143754;27;47002;-95
2021/07/10 06:29:26;;;;;;;;;9.50;9.50;;;;;19.15;67.18;101416.50;5142856;27;45936;-95
2021/07/10 06:31:52;;;;;;;;;8.75;8.00;;;;;18.59;67.06;101309.94;5124966;27;45529;-94
2021/07/10 06:34:18;;;;;;;;;8.25;8.25;;;;;18.76;67.16;101351.91;5142177;27;45544;-96
2021/07/10 06:36:43;;;;;;;;;8.00;8.00;;;;;18.56;66.96;101310.22;5141227;27;47031;-96
2021/07/10 06:39:12;;;;;;;;;11.00;10.50;;;;;19.00;67.24;101394.28;5123213;27;45387;-95
2021/07/10 06:41:38;;;;;;;;;11.00;8.25;;;;;18.90;67.39;101361.56;5117840;27;45320;-96
2021/07/10 06:44:04;;;;;;;;;7.50;7.00;;;;;18.68;67.20;101337.28;5142034;27;45588;-95
2021/07/10 06:46:29;;;;;;;;;11.00;10.00;;;;;18.66;67.23;101328.44;5141390;27;46696;-95
2021/07/10 06:48:55;;;;;;;;;10.25;10.25;;;;;18.71;67.26;101317.97;5141342;27;45321;-96
2021/07/10 06:51:21;;;;;;;;;10.50;9.75;;;;;19.30;67.70;101416.97;5141065;27;45536;-96
2021/07/10 06:53:46;;;;;;;;;8.00;8.00;;;;;19.02;67.19;101356.91;5140956;27;45436;-95
2021/07/10 06:56:12;;;;;;;;;10.75;10.00;;;;;18.81;67.06;101309.84;5124377;27;46704;-95
2021/07/10 06:58:38;;;;;;;;;11.75;10.25;;;;;19.16;67.10;101352.06;5120394;27;45295;-96
2021/07/10 07:01:03;;;;;;;;;11.25;9.75;;;;;18.89;67.17;101307.28;5120236;27;45425;-95
2021/07/10 07:03:31;;;;;;;;;9.25;9.25;;;;;19.16;66.81;101346.63;5138870;27;45423;-96
2021/07/10 07:06:01;;;;;;;;;10.75;10.75;;;;;18.80;66.49;101275.47;5124491;27;46907;-94
2021/07/10 07:08:26;;;;;;;;;9.75;9.00;;;;;19.24;66.72;101350.31;5119748;27;45672;-95
2021/07/10 07:10:52;;;;;;;;;9.75;8.50;;;;;19.00;66.21;101323.53;5104316;27;45366;-95
2021/07/10 07:13:17;;;;;;;;;8.50;8.50;;;;;19.33;66.20;101372.28;5099318;27;45565;-96
2021/07/10 07:15:43;;;;;;;;;7.75;7.00;;;;;19.23;67.03;101355.91;5099098;27;46842;-96
2021/07/10 07:18:09;;;;;;;;;11.00;9.25;;;;;18.98;66.53;101311.94;5099693;27;45513;-95
2021/07/10 07:20:34;;;;;;;;;12.50;9.25;;;;;19.04;66.53;101310.50;5099143;27;45521;-95
2021/07/10 07:23:02;;;;;;;;;9.25;9.25;;;;;19.00;66.86;101298.16;5098788;27;45510;-95
2021/07/10 07:25:30;;;;;;;;;9.25;8.00;;;;;19.48;66.46;101354.50;5099166;27;47547;-95
2021/07/10 07:27:56;;;;;;;;;10.50;9.75;;;;;19.22;66.76;101303.34;5098971;27;45743;-95
2021/07/10 07:30:21;;;;;;;;;7.50;7.50;;;;;19.74;67.12;101363.97;5099029;27;45536;-95
2021/07/10 07:32:47;;;;;;;;;13.25;12.00;;;;;19.66;65.82;101343.75;5099478;27;45446;-95
2021/07/10 07:35:16;;;;;;;;;9.75;8.25;;;;;19.42;65.94;101294.31;5100607;27;48150;-96
2021/07/10 07:37:42;;;;;;;;;10.50;9.50;;;;;19.34;66.32;101260.47;5105302;27;45210;-95
2021/07/10 07:40:10;;;;;;;;;14.25;12.25;;;;;19.13;66.00;101225.25;5102866;27;45472;-96
2021/07/10 07:42:41;;;;;;;;;11.75;8.75;;;;;19.33;66.70;101245.16;5124148;27;45327;-96
2021/07/10 07:45:13;;;;;;;;;12.75;11.25;;;;;19.32;65.77;101243.44;5106457;27;45238;-95
2021/07/10 07:47:39;;;;;;;;;9.00;7.25;;;;;19.45;66.24;101247.75;5099535;27;45269;-95
2021/07/10 07:50:10;;;;;;;;;13.25;9.25;;;;;19.47;65.71;101232.09;5100221;27;45419;-96
2021/07/10 07:52:36;;;;;;;;;12.00;10.00;;;;;19.27;65.71;101206.75;5100510;27;45452;-96
2021/07/10 07:55:03;;;;;;;;;12.00;9.75;;;;;20.05;66.41;101322.88;5099612;27;46822;-96
2021/07/10 07:57:29;;;;;;;;;12.50;9.50;;;;;20.35;65.12;101381.78;5116877;27;45412;-95
2021/07/10 07:59:54;;;;;;;;;10.25;9.00;;;;;20.06;65.63;101321.88;5099444;27;45441;-94
2021/07/10 08:02:22;;;;;;;;;10.00;9.00;;;;;19.68;65.17;101261.84;5098562;27;45513;-95
2021/07/10 08:04:51;;;;;;;;;8.75;8.00;;;;;19.84;65.09;101272.16;5116597;27;47557;-96
2021/07/10 08:07:17;;;;;;;;;9.50;9.50;;;;;19.99;65.00;101294.38;5116506;27;45335;-96
2021/07/10 08:09:43;;;;;;;;;9.75;9.75;;;;;19.94;64.82;101294.81;5090545;27;45408;-96
2021/07/10 08:12:10;;;;;;;;;8.75;8.25;;;;;20.13;65.62;101336.66;5078372;27;45430;-96
2021/07/10 08:14:51;;;;;;;;;7.75;7.00;;;;;20.42;64.72;101379.31;5081322;28;47028;-95
2021/07/10 08:17:17;;;;;;;;;5.75;5.75;;;;;20.01;64.14;101303.25;5075914;27;45392;-95
2021/07/10 08:19:45;;;;;;;;;8.25;7.75;;;;;19.50;64.29;101223.63;5075211;28;45329;-95
2021/07/10 08:22:11;;;;;;;;;6.50;6.50;;;;;19.54;64.82;101244.13;5058089;28;45180;-95
2021/07/10 08:24:37;;;;;;;;;9.75;9.75;;;;;19.45;65.06;101215.91;5075055;28;46936;-96
2021/07/10 08:27:03;;;;;;;;;8.75;8.50;;;;;19.85;65.22;101282.06;5067693;28;45093;-96
2021/07/10 08:29:29;;;;;;;;;8.00;7.00;;;;;19.85;64.52;101282.06;5084833;28;44640;-96
2021/07/10 08:32:05;;;;;;;;;11.25;8.25;;;;;19.49;64.37;101236.41;5093398;27;44813;-95
2021/07/10 08:34:33;;;;;;;;;8.25;7.75;;;;;19.58;63.74;101239.25;5087380;28;47131;-96
2021/07/10 08:37:00;;;;;;;;;10.00;8.00;;;;;19.54;63.49;101228.63;5104141;27;44846;-96
2021/07/10 08:39:26;;;;;;;;;10.00;8.00;;;;;19.46;63.68;101219.47;5093041;27;44739;-96
2021/07/10 08:41:52;;;;;;;;;7.25;7.00;;;;;19.34;63.55;101197.88;5087477;27;45230;-96
2021/07/10 08:44:18;;;;;;;;;9.00;8.00;;;;;19.33;63.39;101195.31;5102775;27;48100;-96
2021/07/10 08:46:54;;;;;;;;;8.50;8.50;;;;;19.51;63.90;101222.63;5123628;27;44761;-96
2021/07/10 08:49:23;;;;;;;;;10.25;8.00;;;;;19.47;62.78;101207.56;5097236;27;44920;-95
2021/07/10 08:52:09;;;;;;;;;;;;;;;;;;;;;
2021/07/10 08:54:35;;;;;;;;;9.00;6.50;;;;;19.59;64.36;101236.38;5086641;28;74498;-96
2021/07/10 08:57:01;;;;;;;;;9.50;8.50;;;;;20.11;62.90;101305.94;5103213;27;44909;-95
2021/07/10 08:59:30;;;;;;;;;8.25;5.25;;;;;19.58;62.96;101233.78;5102123;27;44619;-96
2021/07/10 09:01:56;;;;;;;;;8.00;8.00;;;;;19.58;63.80;101233.78;5099725;27;45586;-96
2021/07/10 09:04:24;;;;;;;;;8.50;7.50;;;;;19.51;63.63;101219.91;5097822;27;47798;-96
2021/07/10 09:06:50;;;;;;;;;4.25;4.25;;;;;20.30;63.80;101349.53;5081051;27;45388;-95
2021/07/10 09:09:17;;;;;;;;;7.00;7.00;;;;;19.64;62.88;101242.22;5073982;28;45292;-96
2021/07/10 09:11:59;;;;;;;;;9.00;6.00;;;;;19.96;64.27;101300.09;5095797;27;45248;-96
2021/07/10 09:14:32;;;;;;;;;5.50;5.50;;;;;19.65;64.08;101241.22;5094946;27;47110;-95
2021/07/10 09:17:18;;;;;;;;;5.75;5.75;;;;;20.13;63.64;101321.16;5098093;27;45337;-96
2021/07/10 09:19:45;;;;;;;;;6.00;5.25;;;;;20.07;63.13;101310.84;5101153;27;45264;-96
2021/07/10 09:22:22;;;;;;;;;6.25;4.75;;;;;19.74;64.13;101272.19;5112204;27;44756;-95
2021/07/10 09:24:49;;;;;;;;;5.00;5.00;;;;;20.13;63.69;101331.19;5120774;27;46845;-95
2021/07/10 09:27:16;;;;;;;;;6.00;6.00;;;;;20.13;63.75;101334.78;5115827;27;45604;-95
2021/07/10 09:29:44;;;;;;;;;4.50;4.50;;;;;20.01;64.77;101313.31;5099681;27;45416;-95
2021/07/10 09:32:12;;;;;;;;;4.00;4.00;;;;;19.60;63.84;101246.25;5098258;27;45426;-95
2021/07/10 09:34:44;;;;;;;;;4.75;4.00;;;;;19.55;64.99;101243.13;5097805;27;47853;-94
2021/07/10 09:37:13;;;;;;;;;2.00;2.00;;;;;20.38;62.69;101375.16;5097648;27;45428;-96
2021/07/10 09:40:00;;;;;;;;;5.00;4.00;;;;;19.48;63.55;101221.06;5088690;27;45425;-93
2021/07/10 09:42:43;;;;;;;;;3.00;1.50;;;;;19.94;63.09;101288.53;5120539;27;45842;-96
2021/07/10 09:45:23;;;;;;;;;6.00;3.25;;;;;19.23;62.94;101188.03;5100712;27;46843;-95
2021/07/10 09:47:50;;;;;;;;;2.25;2.25;;;;;19.45;62.92;101231.41;5117282;27;45635;-96
2021/07/10 09:50:22;;;;;;;;;2.00;2.00;;;;;20.13;63.16;101356.59;5101124;27;45331;-95
2021/07/10 09:52:51;;;;;;;;;2.00;2.00;;;;;19.27;63.38;101210.34;5102592;27;45413;-96
2021/07/10 09:55:22;;;;;;;;;2.00;2.00;;;;;19.31;63.17;101216.38;5091545;27;47697;-95
2021/07/10 09:57:48;;;;;;;;;1.00;1.00;;;;;19.19;61.64;101197.47;5097895;27;45456;-96
2021/07/10 10:00:19;;;;;;;;;2.25;2.25;;;;;19.99;62.43;101352.47;5081570;27;45406;-96
2021/07/10 10:03:05;;;;;;;;;2.25;2.25;;;;;19.21;63.28;101206.34;5089379;27;45244;-96
2021/07/10 10:05:42;;;;;;;;;;;;;;;;;;;;;
2021/07/10 10:08:08;;;;;;;;;2.00;2.00;;;;;19.27;64.06;101195.88;5120497;27;72130;-96
2021/07/10 10:11:04;;;;;;;;;3.75;2.75;;;;;19.95;64.18;101322.94;5144247;27;45355;-96
2021/07/10 10:14:16;;;;;;;;;4.50;2.00;;;;;19.38;64.06;101231.13;5131056;27;45648;-96
2021/07/10 10:17:01;;;;;;;;;;;;;;;;;;;;;
2021/07/10 10:31:29;;;;;;;;;;;;;;;;;;;;;
2021/07/10 10:37:23;;;;;;;;;;;;;;;;;;;;;
2021/07/10 10:43:43;;;;;;;;;4.75;4.75;;;;;19.18;63.36;101197.59;4837196;29;45650;-95
2021/07/10 10:46:15;;;;;;;;;3.50;3.00;;;;;19.31;63.69;101210.91;4826709;29;45442;-96
2021/07/10 10:48:43;;;;;;;;;3.50;3.50;;;;;20.18;63.82;101347.13;4827850;29;45339;-95
2021/07/10 10:51:29;;;;;;;;;2.00;2.00;;;;;20.21;63.57;101327.72;4829486;29;45409;-95
2021/07/10 10:54:22;;;;;;;;;2.50;2.50;;;;;20.24;62.81;101324.72;4827376;29;47162;-96
2021/07/10 10:56:53;;;;;;;;;2.00;2.00;;;;;19.35;62.12;101185.97;4790457;29;45489;-94
2021/07/10 10:59:28;;;;;;;;;2.50;2.50;;;;;20.28;62.66;101329.72;4820393;29;45254;-96
2021/07/10 11:01:57;;;;;;;;;3.25;3.25;;;;;19.34;62.83;101188.84;4878335;29;44814;-95
2021/07/10 11:04:44;;;;;;;;;1.00;1.00;;;;;20.29;60.76;101326.00;4906469;28;46830;-96
2021/07/10 11:07:39;;;;;;;;;2.00;2.00;;;;;19.38;60.86;101185.69;4981967;28;44894;-95
2021/07/10 11:11:13;;;;;;;;;;;;;;;;;;;;;
2021/07/10 11:13:49;;;;;;;;;2.00;2.00;;;;;20.28;61.38;101331.56;5059087;28;70115;-96
2021/07/10 11:16:34;;;;;;;;;;;;;;;;;;;;;
2021/07/10 11:19:09;;;;;;;;;2.00;2.00;;;;;20.39;61.16;101316.91;5057033;28;71755;-96
2021/07/10 11:21:43;;;;;;;;;3.00;2.00;;;;;20.23;61.42;101295.72;5098974;27;45361;-96
2021/07/10 11:26:58;;;;;;;;;2.00;2.00;;;;;20.47;59.81;101318.88;5100073;27;45306;-95
2021/07/10 11:29:37;;;;;;;;;3.25;2.00;;;;;19.66;60.78;101183.03;5100318;27;45161;-95
2021/07/10 11:32:12;;;;;;;;;3.00;3.00;;;;;20.50;60.48;101307.66;5116789;27;45428;-94
2021/07/10 11:34:59;;;;;;;;;3.50;2.75;;;;;20.18;60.74;101244.34;5099075;27;44876;-94
2021/07/10 11:37:53;;;;;;;;;2.75;2.75;;;;;19.97;59.95;101207.31;5120975;27;47601;-96
2021/07/10 11:41:04;;;;;;;;;5.50;4.00;;;;;20.68;59.78;101337.72;5119612;27;44929;-96
2021/07/10 11:44:25;;;;;;;;;3.25;2.25;;;;;19.96;60.81;101196.53;5123638;27;45283;-96
2021/07/10 11:47:00;;;;;;;;;2.25;2.25;;;;;20.71;59.70;101312.84;5075487;27;45500;-95
2021/07/10 11:50:28;;;;;;;;;3.25;3.25;;;;;19.88;61.15;101186.41;5079447;27;47211;-94
2021/07/10 11:53:02;;;;;;;;;;;;;;;;;;;;;
2021/07/10 11:56:26;;;;;;;;;1.75;1.75;;;;;19.93;61.33;101189.53;5103909;27;68863;-96
2021/07/10 12:03:22;;;;;;;;;;;;;;;;;;;;;
2021/07/10 12:05:43;;;;;;;;;2.25;2.25;;;;;19.77;60.23;101175.66;4980039;28;45491;-95
2021/07/10 12:09:14;;;;;;;;;2.75;2.75;;;;;19.70;60.00;101159.06;4973907;28;44666;-96
2021/07/10 12:11:55;;;;;;;;;;;;;;;;;;;;;